Airfield :
LOGIN :

Register | Disclaimer

   EN    FR    IT 

 










Legend :    VFR   Marginal VFR   IFR   Intensive IFR   Very Intensive IFR
Visi :
Ceiling :
>= 8 km
>= 3000ft
5 to 8 km
1000 to 3000 ft
1500m to 5 km
500 to 1000 ft
800 to 1500m
200 to 500 ft
< 800m
< 200 ft
Symbols :   Thunderstorms  Fog  Heavy snow  Heavy precipitations  Wind > 20 kt
SIGMETs :     Misc.  Thunderstorms  Icing  Turbulence  Mountain Waves  Volcanic Ashes






- Airport Elevation : 156 ft
- IATA code : OMO


LQMO - Mostar

CURRENT METAR :
  • 050000Z 16004KT 9999 FEW035 BKN045 19/18 Q1005

EXPIRED METARs :
  • 042300Z VRB02KT 9999 FEW035 BKN045 19/18 Q1005
  • 042200Z 13006KT 120V180 9999 TS FEW035CB OVC045 20/18 Q1005

TAF TAF LQMO
Valid from the 05 at 00:00 until the 06 at 00:00 UTC


042300Z 0500/0524 VRB02KT 9999 SCT045 TX26/0513Z TN18/0503Z
PROB40
TEMPO 0510/0522 VRB15KT 4000 TSRA FEW010 FEW035CB BKN045



MET'MAP, your aeronautical weather chart ! - Copyright ORBIFLY December 2007 - Disclaimer

ORBIFLY MET'MAP TEAM :

Programming & Development : Alexandra Zaïnal
Concept & original design : Baudouin d'Aumeries
Assistance for programming : Marc-Olivier Méhu
Technical & hardware support : Manuel Goepfert

Contact : metmap@orbifly.com




SOURCES & CREDITS :

   NOAA